Time;durP1;ratioP1;P1;durP2;ratioP2;P2;SDS_P1;SDS_P2;PMS_P1;PMS_P2;Temp;Humidity;BMP_temperature;BMP_pressure;BME280_temperature;BME280_humidity;BME280_pressure;Samples;Min_cycle;Max_cycle;Signal;HPM_P1;HPM_P2
2022/11/18 00:00:24;;;;;;;;;;;7.70;99.90;;;;;;5026593;28;19922;-69
2022/11/18 00:02:53;;;;;;;;;;;7.70;99.90;;;;;;5020599;28;19933;-69
2022/11/18 00:05:18;;;;;;;;;;;7.70;99.90;;;;;;5025404;28;20425;-68
2022/11/18 00:07:44;;;;;;;;;;;7.70;99.90;;;;;;5032012;28;20458;-69
2022/11/18 00:10:09;;;;;;;;;;;7.70;99.90;;;;;;5024715;28;19971;-68
2022/11/18 00:15:19;;;;;;;;;;;7.60;99.90;;;;;;5020342;28;20338;-69
2022/11/18 00:17:44;;;;;;;;;;;7.70;99.90;;;;;;5021503;28;19927;-69
2022/11/18 00:20:10;;;;;;;;;;;7.60;99.90;;;;;;5018691;28;20015;-69
2022/11/18 00:22:35;;;;;;;;;;;7.60;99.90;;;;;;5024302;28;19931;-69
2022/11/18 00:25:01;;;;;;;;;;;7.60;99.90;;;;;;5024826;28;20370;-69
2022/11/18 00:27:30;;;;;;;;;;;7.60;99.90;;;;;;5023128;28;19917;-71
2022/11/18 00:29:56;;;;;;;;;;;7.60;99.90;;;;;;5019972;28;20351;-69
2022/11/18 00:32:21;;;;;;;;;;;7.60;99.90;;;;;;5028036;28;19982;-69
2022/11/18 00:34:47;;;;;;;;;;;7.60;99.90;;;;;;5027918;28;19917;-69
2022/11/18 00:37:12;;;;;;;;;;;7.60;99.90;;;;;;5010354;28;19970;-69
2022/11/18 00:39:38;;;;;;;;;;;7.60;99.90;;;;;;5023568;28;19928;-69
2022/11/18 00:44:47;;;;;;;;;;;7.60;99.90;;;;;;5016491;28;20391;-69
2022/11/18 00:47:13;;;;;;;;;;;7.60;99.90;;;;;;5025691;28;19996;-68
2022/11/18 00:49:38;;;;;;;;;;;7.60;99.90;;;;;;5020860;28;20057;-70
2022/11/18 00:52:05;;;;;;;;;;;7.60;99.90;;;;;;5026052;28;20024;-69
2022/11/18 00:54:30;;;;;;;;;;;7.60;99.90;;;;;;5021333;28;19917;-70
2022/11/18 00:56:56;;;;;;;;;;;7.60;99.90;;;;;;5027650;28;20391;-69
2022/11/18 00:59:24;;;;;;;;;;;7.60;99.90;;;;;;5026856;28;19921;-69
2022/11/18 01:01:50;;;;;;;;;;;7.60;99.90;;;;;;5024673;28;20298;-69
2022/11/18 01:04:15;;;;;;;;;;;7.60;99.90;;;;;;5025906;28;19990;-69
2022/11/18 01:06:41;;;;;;;;;;;7.60;99.90;;;;;;5022219;28;20217;-69
2022/11/18 01:09:06;;;;;;;;;;;7.60;99.90;;;;;;5031239;28;19931;-69
2022/11/18 01:14:16;;;;;;;;;;;7.70;99.90;;;;;;5023621;28;20276;-69
2022/11/18 01:16:41;;;;;;;;;;;7.70;99.90;;;;;;5023911;28;19936;-70
2022/11/18 01:19:07;;;;;;;;;;;7.70;99.90;;;;;;5023460;28;20496;-69
2022/11/18 01:21:32;;;;;;;;;;;7.70;99.90;;;;;;5003842;28;19921;-69
2022/11/18 01:23:58;;;;;;;;;;;7.70;99.90;;;;;;5021898;28;20019;-68
2022/11/18 01:26:23;;;;;;;;;;;7.70;99.90;;;;;;5030676;28;20378;-69
2022/11/18 01:28:49;;;;;;;;;;;7.70;99.90;;;;;;5030339;28;19952;-68
2022/11/18 01:31:17;;;;;;;;;;;7.70;99.90;;;;;;5024139;28;19978;-69
2022/11/18 01:33:43;;;;;;;;;;;7.70;99.90;;;;;;5027207;28;19921;-69
2022/11/18 01:36:15;;;;;;;;;;;7.80;99.90;;;;;;5036064;28;19917;-69
2022/11/18 01:38:41;;;;;;;;;;;7.80;99.90;;;;;;5011331;28;20031;-69
2022/11/18 01:41:06;;;;;;;;;;;7.80;99.90;;;;;;5010051;28;20655;-69
2022/11/18 01:43:46;;;;;;;;;;;7.80;99.90;;;;;;5027406;28;20372;-69
2022/11/18 01:46:11;;;;;;;;;;;7.80;99.90;;;;;;5027576;28;19924;-69
2022/11/18 01:48:38;;;;;;;;;;;7.80;99.90;;;;;;5027864;28;20000;-69
2022/11/18 01:51:04;;;;;;;;;;;7.80;99.90;;;;;;5013869;28;19924;-69
2022/11/18 01:53:32;;;;;;;;;;;7.80;99.90;;;;;;5026004;28;19916;-69
2022/11/18 01:56:00;;;;;;;;;;;7.80;99.90;;;;;;5028829;28;20350;-69
2022/11/18 01:58:28;;;;;;;;;;;7.80;99.90;;;;;;5017101;28;19925;-69
2022/11/18 02:00:54;;;;;;;;;;;7.80;99.90;;;;;;5013466;28;19920;-69
2022/11/18 02:03:19;;;;;;;;;;;7.80;99.90;;;;;;5026356;28;21639;-69
2022/11/18 02:05:46;;;;;;;;;;;7.80;99.90;;;;;;5022534;28;19923;-69
2022/11/18 02:08:12;;;;;;;;;;;7.80;99.90;;;;;;5020394;28;19920;-69
2022/11/18 02:10:38;;;;;;;;;;;7.80;99.90;;;;;;5010835;28;20210;-69
2022/11/18 02:13:03;;;;;;;;;;;7.80;99.90;;;;;;5023008;28;20445;-70
2022/11/18 02:15:48;;;;;;;;;;;7.80;99.90;;;;;;5018554;28;20023;-69
2022/11/18 02:18:39;;;;;;;;;;;7.80;99.90;;;;;;5021731;28;19980;-69
2022/11/18 02:21:23;;;;;;;;;;;7.80;99.90;;;;;;5020138;28;20300;-69
2022/11/18 02:24:08;;;;;;;;;;;7.80;99.90;;;;;;5019663;28;19931;-69
2022/11/18 02:26:48;;;;;;;;;;;7.80;99.90;;;;;;5024864;28;19974;-69
2022/11/18 02:29:21;;;;;;;;;;;7.90;99.90;;;;;;5027106;28;19917;-70
2022/11/18 02:31:51;;;;;;;;;;;7.90;99.90;;;;;;5015673;28;19924;-70
2022/11/18 02:34:36;;;;;;;;;;;7.90;99.90;;;;;;5044963;28;20000;-69
2022/11/18 02:37:10;;;;;;;;;;;7.90;99.90;;;;;;5019780;28;19925;-68
2022/11/18 02:39:38;;;;;;;;;;;7.90;99.90;;;;;;5021206;28;19975;-68
2022/11/18 02:42:07;;;;;;;;;;;7.90;99.90;;;;;;5020466;28;19952;-70
2022/11/18 02:44:35;;;;;;;;;;;7.90;99.90;;;;;;5023496;28;19921;-70
2022/11/18 02:47:02;;;;;;;;;;;7.90;99.90;;;;;;5025292;28;20025;-69
2022/11/18 02:49:33;;;;;;;;;;;7.90;99.90;;;;;;5020376;28;20423;-70
2022/11/18 02:52:00;;;;;;;;;;;7.90;99.90;;;;;;5024092;28;20022;-69
2022/11/18 02:54:27;;;;;;;;;;;7.90;99.90;;;;;;5022284;28;19931;-70
2022/11/18 02:56:53;;;;;;;;;;;8.00;99.90;;;;;;5024675;28;20016;-69
2022/11/18 02:59:18;;;;;;;;;;;7.90;99.90;;;;;;5030006;28;20020;-70
2022/11/18 03:01:44;;;;;;;;;;;7.90;99.90;;;;;;5025970;28;19928;-70
2022/11/18 03:04:10;;;;;;;;;;;7.90;99.90;;;;;;5023543;28;20003;-70
2022/11/18 03:06:37;;;;;;;;;;;7.90;99.90;;;;;;5021498;28;19917;-70
2022/11/18 03:09:15;;;;;;;;;;;7.90;99.90;;;;;;5020063;28;19927;-70
2022/11/18 03:11:47;;;;;;;;;;;7.90;99.90;;;;;;5013086;28;19917;-70
2022/11/18 03:14:31;;;;;;;;;;;7.90;99.90;;;;;;4999417;28;20121;-70
2022/11/18 03:16:56;;;;;;;;;;;7.90;99.90;;;;;;5011718;28;19948;-69
2022/11/18 03:19:22;;;;;;;;;;;7.90;99.90;;;;;;5020117;28;20387;-70
2022/11/18 03:21:54;;;;;;;;;;;7.90;99.90;;;;;;5025805;28;19979;-70
2022/11/18 03:24:27;;;;;;;;;;;7.90;99.90;;;;;;5024068;28;20170;-70
2022/11/18 03:26:54;;;;;;;;;;;7.90;99.90;;;;;;5020459;28;19917;-70
2022/11/18 03:29:22;;;;;;;;;;;7.90;99.90;;;;;;5024678;28;20307;-70
2022/11/18 03:31:50;;;;;;;;;;;7.90;99.90;;;;;;5024496;28;19920;-70
2022/11/18 03:34:27;;;;;;;;;;;7.90;99.90;;;;;;5019850;28;19917;-70
2022/11/18 03:36:55;;;;;;;;;;;7.90;99.90;;;;;;5023446;28;19917;-70
2022/11/18 03:39:21;;;;;;;;;;;7.90;99.90;;;;;;5028395;22;19921;-73
2022/11/18 03:42:01;;;;;;;;;;;7.90;99.90;;;;;;5008799;28;19925;-73
2022/11/18 03:44:29;;;;;;;;;;;7.90;99.90;;;;;;5008716;28;20288;-73
2022/11/18 03:46:58;;;;;;;;;;;7.90;99.90;;;;;;5002031;28;19917;-71
2022/11/18 03:49:52;;;;;;;;;;;7.90;99.90;;;;;;5006818;28;19971;-71
2022/11/18 03:52:21;;;;;;;;;;;7.90;99.90;;;;;;4998551;28;19921;-72
2022/11/18 03:54:48;;;;;;;;;;;7.90;99.90;;;;;;5010125;28;20004;-75
2022/11/18 03:57:15;;;;;;;;;;;7.90;99.90;;;;;;5007216;28;19917;-72
2022/11/18 04:00:02;;;;;;;;;;;7.90;99.90;;;;;;5009028;28;19917;-71
2022/11/18 04:02:29;;;;;;;;;;;7.90;99.90;;;;;;5005071;28;20446;-72
2022/11/18 04:04:55;;;;;;;;;;;7.80;99.90;;;;;;5009660;28;20019;-72
2022/11/18 04:07:30;;;;;;;;;;;7.80;99.90;;;;;;5011143;28;19996;-71
2022/11/18 04:10:16;;;;;;;;;;;7.80;99.90;;;;;;5004590;28;20008;-71
2022/11/18 04:13:02;;;;;;;;;;;7.80;99.90;;;;;;5006186;28;19972;-71
2022/11/18 04:15:29;;;;;;;;;;;7.80;99.90;;;;;;5005300;28;19944;-71
2022/11/18 04:17:54;;;;;;;;;;;7.80;99.90;;;;;;5009770;28;20095;-72
2022/11/18 04:20:20;;;;;;;;;;;7.80;99.90;;;;;;5010326;28;20020;-72
2022/11/18 04:22:46;;;;;;;;;;;7.70;99.90;;;;;;5009520;28;19925;-72
2022/11/18 04:25:12;;;;;;;;;;;7.80;99.90;;;;;;5008360;28;19937;-71
2022/11/18 04:27:37;;;;;;;;;;;7.80;99.90;;;;;;5009779;28;20365;-71
2022/11/18 04:30:04;;;;;;;;;;;7.70;99.90;;;;;;5010954;28;20011;-71
2022/11/18 04:32:30;;;;;;;;;;;7.70;99.90;;;;;;5018951;28;19932;-72
2022/11/18 04:34:55;;;;;;;;;;;7.70;99.90;;;;;;5009530;28;19943;-72
2022/11/18 04:37:21;;;;;;;;;;;7.80;99.90;;;;;;5010834;28;19917;-72
2022/11/18 04:39:47;;;;;;;;;;;7.70;99.90;;;;;;5004183;28;19921;-72
2022/11/18 04:42:12;;;;;;;;;;;7.70;99.90;;;;;;5001275;28;20370;-72
2022/11/18 04:44:38;;;;;;;;;;;7.70;99.90;;;;;;5002021;28;19996;-72
2022/11/18 04:47:04;;;;;;;;;;;7.70;99.90;;;;;;5007458;28;20291;-72
2022/11/18 04:49:30;;;;;;;;;;;7.70;99.90;;;;;;5014684;28;19925;-72
2022/11/18 04:51:58;;;;;;;;;;;7.70;99.90;;;;;;5011182;28;19976;-72
2022/11/18 04:54:24;;;;;;;;;;;7.70;99.90;;;;;;5013005;28;19932;-72
2022/11/18 04:56:50;;;;;;;;;;;7.70;99.90;;;;;;5013019;28;19917;-72
2022/11/18 04:59:17;;;;;;;;;;;7.70;99.90;;;;;;5005934;28;19925;-72
2022/11/18 05:01:43;;;;;;;;;;;7.70;99.90;;;;;;5013693;28;19944;-72
2022/11/18 05:04:11;;;;;;;;;;;7.60;99.90;;;;;;5000788;28;20334;-71
2022/11/18 05:06:36;;;;;;;;;;;7.60;99.90;;;;;;5004036;28;19921;-72
2022/11/18 05:09:02;;;;;;;;;;;7.60;99.90;;;;;;5003009;28;20001;-73
2022/11/18 05:14:13;;;;;;;;;;;7.60;99.90;;;;;;5013709;28;19921;-72
2022/11/18 05:16:38;;;;;;;;;;;7.60;99.90;;;;;;5005941;28;19924;-71
2022/11/18 05:19:04;;;;;;;;;;;7.60;99.90;;;;;;5006959;28;19921;-72
2022/11/18 05:21:29;;;;;;;;;;;7.60;99.90;;;;;;5009666;28;20347;-72
2022/11/18 05:23:57;;;;;;;;;;;7.60;99.90;;;;;;4999795;28;20392;-72
2022/11/18 05:26:22;;;;;;;;;;;7.60;99.90;;;;;;5010563;28;19917;-72
2022/11/18 05:28:48;;;;;;;;;;;7.60;99.90;;;;;;5012358;28;19954;-73
2022/11/18 05:31:15;;;;;;;;;;;7.60;99.90;;;;;;5006242;28;19917;-72
2022/11/18 05:33:41;;;;;;;;;;;7.60;99.90;;;;;;4995946;28;19917;-72
2022/11/18 05:36:08;;;;;;;;;;;7.60;99.90;;;;;;5007220;28;20052;-72
2022/11/18 05:38:36;;;;;;;;;;;7.60;99.90;;;;;;5009752;28;20370;-72
2022/11/18 05:41:02;;;;;;;;;;;7.60;99.90;;;;;;5005875;28;19971;-72
2022/11/18 05:43:28;;;;;;;;;;;7.50;99.90;;;;;;5005837;28;20016;-72
2022/11/18 05:45:54;;;;;;;;;;;7.60;99.90;;;;;;5004649;28;20008;-71
2022/11/18 05:48:19;;;;;;;;;;;7.60;99.90;;;;;;5007519;28;19917;-72
2022/11/18 05:50:46;;;;;;;;;;;7.50;99.90;;;;;;4986619;28;19937;-72
2022/11/18 05:53:11;;;;;;;;;;;7.60;99.90;;;;;;5008153;28;20008;-72
2022/11/18 05:55:40;;;;;;;;;;;7.60;99.90;;;;;;4991242;28;20288;-72
2022/11/18 05:58:06;;;;;;;;;;;7.60;99.90;;;;;;4999642;28;19925;-72
2022/11/18 06:00:32;;;;;;;;;;;7.60;99.90;;;;;;5002279;28;20003;-71
2022/11/18 06:02:58;;;;;;;;;;;7.50;99.90;;;;;;4997568;28;20298;-72
2022/11/18 06:05:24;;;;;;;;;;;7.60;99.90;;;;;;5007898;28;19980;-72
2022/11/18 06:07:49;;;;;;;;;;;7.60;99.90;;;;;;5000800;28;19925;-72
2022/11/18 06:10:17;;;;;;;;;;;7.60;99.90;;;;;;5000695;28;19991;-71
2022/11/18 06:12:44;;;;;;;;;;;7.60;99.90;;;;;;4980169;28;22158;-72
2022/11/18 06:15:27;;;;;;;;;;;7.60;99.90;;;;;;5007580;28;19917;-71
2022/11/18 06:17:58;;;;;;;;;;;7.50;99.90;;;;;;4998107;28;19924;-72
2022/11/18 06:20:25;;;;;;;;;;;7.50;99.90;;;;;;5002822;28;19921;-72
2022/11/18 06:22:52;;;;;;;;;;;7.50;99.90;;;;;;4997445;28;19921;-71
2022/11/18 06:25:18;;;;;;;;;;;7.50;99.90;;;;;;5007264;28;19924;-73
2022/11/18 06:27:44;;;;;;;;;;;7.50;99.90;;;;;;5006393;28;19925;-72
2022/11/18 06:30:10;;;;;;;;;;;7.50;99.90;;;;;;5006623;28;19917;-73
2022/11/18 06:32:35;;;;;;;;;;;7.50;99.90;;;;;;5007193;28;20302;-72
2022/11/18 06:35:01;;;;;;;;;;;7.50;99.90;;;;;;5003674;28;19917;-72
2022/11/18 06:37:26;;;;;;;;;;;7.50;99.90;;;;;;5004515;28;19921;-72
2022/11/18 06:39:52;;;;;;;;;;;7.50;99.90;;;;;;5003101;28;20364;-72
2022/11/18 06:45:02;;;;;;;;;;;7.50;99.90;;;;;;5006919;28;19924;-72
2022/11/18 06:47:28;;;;;;;;;;;7.50;99.90;;;;;;5003351;28;19917;-71
2022/11/18 06:49:53;;;;;;;;;;;7.50;99.90;;;;;;5006679;28;19921;-72
2022/11/18 06:52:20;;;;;;;;;;;7.50;99.90;;;;;;5005422;28;20323;-74
2022/11/18 06:54:45;;;;;;;;;;;7.50;99.90;;;;;;5001348;28;19921;-74
2022/11/18 06:57:11;;;;;;;;;;;7.50;99.90;;;;;;5010170;28;20342;-74
2022/11/18 06:59:36;;;;;;;;;;;7.50;99.90;;;;;;5011747;28;20136;-71
2022/11/18 07:02:02;;;;;;;;;;;7.40;99.90;;;;;;5006479;28;20180;-72
2022/11/18 07:04:27;;;;;;;;;;;7.40;99.90;;;;;;5004540;28;20312;-72
2022/11/18 07:06:53;;;;;;;;;;;7.40;99.90;;;;;;5000230;28;20000;-71
2022/11/18 07:09:18;;;;;;;;;;;7.40;99.90;;;;;;5011141;28;20013;-71
2022/11/18 07:11:44;;;;;;;;;;;7.40;99.90;;;;;;5003274;28;20360;-72
2022/11/18 07:14:11;;;;;;;;;;;7.40;99.90;;;;;;5003872;28;19917;-72
2022/11/18 07:16:37;;;;;;;;;;;7.40;99.90;;;;;;5003157;28;19943;-72
2022/11/18 07:19:07;;;;;;;;;;;7.40;99.90;;;;;;5007589;28;19925;-72
2022/11/18 07:21:32;;;;;;;;;;;7.40;99.90;;;;;;5007002;28;19994;-72
2022/11/18 07:23:58;;;;;;;;;;;7.40;99.90;;;;;;5006677;28;19917;-74
2022/11/18 07:26:24;;;;;;;;;;;7.40;99.90;;;;;;5006347;28;20024;-72
2022/11/18 07:28:49;;;;;;;;;;;7.40;99.90;;;;;;5009756;28;19928;-74
2022/11/18 07:31:17;;;;;;;;;;;7.40;99.90;;;;;;5010818;28;20289;-72
2022/11/18 07:33:42;;;;;;;;;;;7.40;99.90;;;;;;5008402;28;19918;-72
2022/11/18 07:36:10;;;;;;;;;;;7.40;99.90;;;;;;4998535;28;21242;-72
2022/11/18 07:38:35;;;;;;;;;;;7.40;99.90;;;;;;5001437;28;19944;-72
2022/11/18 07:41:02;;;;;;;;;;;7.30;99.90;;;;;;5004566;28;19965;-72
2022/11/18 07:43:27;;;;;;;;;;;7.30;99.90;;;;;;5007075;28;20316;-72
2022/11/18 07:45:52;;;;;;;;;;;7.40;99.90;;;;;;5007009;28;20032;-72
2022/11/18 07:48:18;;;;;;;;;;;7.30;99.90;;;;;;5001756;28;19940;-72
2022/11/18 07:50:44;;;;;;;;;;;7.30;99.90;;;;;;4999539;28;20275;-71
2022/11/18 07:53:09;;;;;;;;;;;7.30;99.90;;;;;;5005799;28;19948;-71
2022/11/18 07:55:35;;;;;;;;;;;7.30;99.90;;;;;;5001484;28;19925;-71
2022/11/18 07:58:00;;;;;;;;;;;7.30;99.90;;;;;;5001557;28;19917;-71
2022/11/18 08:00:25;;;;;;;;;;;7.30;99.90;;;;;;5008890;28;19996;-71
2022/11/18 08:02:51;;;;;;;;;;;7.30;99.90;;;;;;5008905;28;19921;-71
2022/11/18 08:05:17;;;;;;;;;;;7.30;99.90;;;;;;5002493;28;20375;-71
2022/11/18 08:07:42;;;;;;;;;;;7.30;99.90;;;;;;5007522;28;19921;-71
2022/11/18 08:10:08;;;;;;;;;;;7.30;99.90;;;;;;5003767;28;19937;-71
2022/11/18 08:12:33;;;;;;;;;;;7.30;99.90;;;;;;5001019;28;19964;-71
2022/11/18 08:14:59;;;;;;;;;;;7.20;99.90;;;;;;4999903;28;20012;-71
2022/11/18 08:17:24;;;;;;;;;;;7.20;99.90;;;;;;4999541;28;20371;-71
2022/11/18 08:19:50;;;;;;;;;;;7.30;99.90;;;;;;5003827;28;20027;-71
2022/11/18 08:22:19;;;;;;;;;;;7.20;99.90;;;;;;5005696;28;19922;-71
2022/11/18 08:24:45;;;;;;;;;;;7.20;99.90;;;;;;5004089;28;19921;-72
2022/11/18 08:27:11;;;;;;;;;;;7.20;99.90;;;;;;5001661;28;20231;-71
2022/11/18 08:29:36;;;;;;;;;;;7.20;99.90;;;;;;5013736;28;19975;-71
2022/11/18 08:32:02;;;;;;;;;;;7.20;99.90;;;;;;5007566;28;19921;-71
2022/11/18 08:34:27;;;;;;;;;;;7.30;99.90;;;;;;5006560;28;19917;-71
2022/11/18 08:36:53;;;;;;;;;;;7.20;99.90;;;;;;5006565;28;19947;-71
2022/11/18 08:39:18;;;;;;;;;;;7.30;99.90;;;;;;5009786;28;19921;-71
2022/11/18 08:41:45;;;;;;;;;;;7.30;99.90;;;;;;5004533;28;19932;-71
2022/11/18 08:44:12;;;;;;;;;;;7.20;99.90;;;;;;5012122;28;19923;-71
2022/11/18 08:46:38;;;;;;;;;;;7.30;99.90;;;;;;5007827;28;20383;-72
2022/11/18 08:49:03;;;;;;;;;;;7.20;99.90;;;;;;5009608;28;20031;-71
2022/11/18 08:51:29;;;;;;;;;;;7.20;99.90;;;;;;5008564;28;19917;-71
2022/11/18 08:53:54;;;;;;;;;;;7.20;99.90;;;;;;5008061;28;20379;-71
2022/11/18 08:56:21;;;;;;;;;;;7.20;99.90;;;;;;5011570;28;19924;-71
2022/11/18 08:58:46;;;;;;;;;;;7.20;99.90;;;;;;5009271;28;19920;-71
2022/11/18 09:01:12;;;;;;;;;;;7.20;99.90;;;;;;5006122;28;20287;-71
2022/11/18 09:03:38;;;;;;;;;;;7.10;99.90;;;;;;5007944;28;20227;-71
2022/11/18 09:06:05;;;;;;;;;;;7.20;99.90;;;;;;5002261;28;20416;-71
2022/11/18 09:08:31;;;;;;;;;;;7.20;99.90;;;;;;5008969;28;20371;-71
2022/11/18 09:10:56;;;;;;;;;;;7.20;99.90;;;;;;5005208;28;19932;-71
2022/11/18 09:13:22;;;;;;;;;;;7.20;99.90;;;;;;5018372;28;19932;-72
2022/11/18 09:15:47;;;;;;;;;;;7.20;99.90;;;;;;5003382;28;19932;-72
2022/11/18 09:18:13;;;;;;;;;;;7.20;99.90;;;;;;5011849;28;19917;-72
2022/11/18 09:20:38;;;;;;;;;;;7.20;99.90;;;;;;5006086;28;19929;-71
2022/11/18 09:23:04;;;;;;;;;;;7.20;99.90;;;;;;5004622;28;20020;-72
2022/11/18 09:25:29;;;;;;;;;;;7.20;99.90;;;;;;5006027;28;19986;-71
2022/11/18 09:27:55;;;;;;;;;;;7.20;99.90;;;;;;5015600;28;20004;-71
2022/11/18 09:30:21;;;;;;;;;;;7.20;99.90;;;;;;5009636;28;19926;-72
2022/11/18 09:32:46;;;;;;;;;;;7.30;99.90;;;;;;5004327;28;20254;-72
2022/11/18 09:35:13;;;;;;;;;;;7.30;99.90;;;;;;5015086;28;19917;-71
2022/11/18 09:37:38;;;;;;;;;;;7.30;99.90;;;;;;5006570;28;20409;-72
2022/11/18 09:40:07;;;;;;;;;;;7.30;99.90;;;;;;5036677;22;19937;-73
2022/11/18 09:42:35;;;;;;;;;;;7.30;99.90;;;;;;5026248;28;19944;-73
2022/11/18 09:45:18;;;;;;;;;;;7.20;99.90;;;;;;5003421;28;19917;-74
2022/11/18 09:47:44;;;;;;;;;;;7.30;99.90;;;;;;5022642;28;19929;-75
2022/11/18 09:50:11;;;;;;;;;;;7.20;99.90;;;;;;5029401;28;19917;-74
2022/11/18 09:53:09;;;;;;;;;;;7.30;99.90;;;;;;5029101;28;19917;-76
2022/11/18 09:55:37;;;;;;;;;;;7.20;99.90;;;;;;5018664;28;20074;-75
2022/11/18 09:58:03;;;;;;;;;;;7.30;99.90;;;;;;5014045;28;20318;-74
2022/11/18 10:00:31;;;;;;;;;;;7.30;99.90;;;;;;5012486;28;20051;-75
2022/11/18 10:03:00;;;;;;;;;;;7.30;99.90;;;;;;5016461;28;19975;-74
2022/11/18 10:05:27;;;;;;;;;;;7.30;99.90;;;;;;5033114;28;19924;-74
2022/11/18 10:08:12;;;;;;;;;;;7.30;99.90;;;;;;5026146;28;20416;-74
2022/11/18 10:10:54;;;;;;;;;;;7.30;99.90;;;;;;5009180;28;19922;-74
2022/11/18 10:13:19;;;;;;;;;;;7.30;99.90;;;;;;5022142;28;20048;-74
2022/11/18 10:15:52;;;;;;;;;;;7.30;99.90;;;;;;5031950;28;19933;-75
2022/11/18 10:18:31;;;;;;;;;;;7.30;99.90;;;;;;5023241;28;19919;-75
2022/11/18 10:21:17;;;;;;;;;;;7.40;99.90;;;;;;5020278;28;19923;-75
2022/11/18 10:23:43;;;;;;;;;;;7.30;99.90;;;;;;5020199;28;19936;-74
2022/11/18 10:26:08;;;;;;;;;;;7.30;99.90;;;;;;5018914;28;19917;-75
2022/11/18 10:28:38;;;;;;;;;;;7.40;99.90;;;;;;5019330;28;19943;-74
2022/11/18 10:31:09;;;;;;;;;;;7.40;99.90;;;;;;5020694;28;19916;-74
2022/11/18 10:33:37;;;;;;;;;;;7.40;99.90;;;;;;5016670;28;19922;-74
2022/11/18 10:36:10;;;;;;;;;;;7.30;99.90;;;;;;5023004;28;20310;-74
2022/11/18 10:38:36;;;;;;;;;;;7.40;99.90;;;;;;5028119;28;19924;-75
2022/11/18 10:41:10;;;;;;;;;;;7.40;99.90;;;;;;5017858;28;19918;-74
2022/11/18 10:43:49;;;;;;;;;;;7.40;99.90;;;;;;5019300;28;19924;-75
2022/11/18 10:46:16;;;;;;;;;;;7.40;99.90;;;;;;5019647;28;20181;-74
2022/11/18 10:48:42;;;;;;;;;;;7.40;99.90;;;;;;5031575;28;19923;-74
2022/11/18 10:51:21;;;;;;;;;;;7.40;99.90;;;;;;5025815;28;20007;-74
2022/11/18 10:53:46;;;;;;;;;;;7.30;99.90;;;;;;5018808;28;19924;-74
2022/11/18 10:56:14;;;;;;;;;;;7.30;99.90;;;;;;5031416;28;19916;-74
2022/11/18 10:58:42;;;;;;;;;;;7.30;99.90;;;;;;5008775;28;19917;-74
2022/11/18 11:01:24;;;;;;;;;;;7.30;99.90;;;;;;5020910;28;19928;-74
2022/11/18 11:04:08;;;;;;;;;;;7.30;99.90;;;;;;5023691;28;19921;-74
2022/11/18 11:06:37;;;;;;;;;;;7.30;99.90;;;;;;5009074;28;20028;-74
2022/11/18 11:09:07;;;;;;;;;;;7.20;99.90;;;;;;5021065;28;19917;-74
2022/11/18 11:11:33;;;;;;;;;;;7.30;99.90;;;;;;5010050;28;19923;-75
2022/11/18 11:14:10;;;;;;;;;;;7.30;99.90;;;;;;5002571;28;20381;-75
2022/11/18 11:16:42;;;;;;;;;;;7.30;99.90;;;;;;5018867;28;20083;-74
2022/11/18 11:19:10;;;;;;;;;;;7.30;99.90;;;;;;5026745;28;20301;-74
2022/11/18 11:21:36;;;;;;;;;;;7.20;99.90;;;;;;5027179;28;20009;-76
2022/11/18 11:24:07;;;;;;;;;;;7.30;99.90;;;;;;5019564;28;19917;-74
2022/11/18 11:26:33;;;;;;;;;;;7.20;99.90;;;;;;5025897;28;19987;-74
2022/11/18 11:29:21;;;;;;;;;;;7.20;99.90;;;;;;5030705;28;19936;-74
2022/11/18 11:31:47;;;;;;;;;;;7.30;99.90;;;;;;5020839;28;20271;-74
2022/11/18 11:34:19;;;;;;;;;;;7.30;99.90;;;;;;5023512;28;19921;-74
2022/11/18 11:37:00;;;;;;;;;;;7.30;99.90;;;;;;5028117;28;19916;-74
2022/11/18 11:39:32;;;;;;;;;;;7.20;99.90;;;;;;5015498;28;19921;-74
2022/11/18 11:42:09;;;;;;;;;;;7.20;99.90;;;;;;5016276;28;19917;-74
2022/11/18 11:44:42;;;;;;;;;;;7.20;99.90;;;;;;5020081;28;20473;-73
2022/11/18 11:50:12;;;;;;;;;;;7.20;99.90;;;;;;5025401;28;19921;-74
2022/11/18 11:53:07;;;;;;;;;;;7.10;99.90;;;;;;5026263;28;19917;-74
2022/11/18 11:55:44;;;;;;;;;;;7.10;99.90;;;;;;5000530;28;19918;-74
2022/11/18 11:58:22;;;;;;;;;;;7.10;99.90;;;;;;5019233;28;19924;-74
2022/11/18 12:01:06;;;;;;;;;;;7.10;99.90;;;;;;5035896;28;19921;-74
2022/11/18 12:03:35;;;;;;;;;;;7.20;99.90;;;;;;5015926;28;19917;-74
2022/11/18 12:06:00;;;;;;;;;;;7.10;99.90;;;;;;5019203;28;20184;-74
2022/11/18 12:08:29;;;;;;;;;;;7.10;99.90;;;;;;5020752;28;20394;-74
2022/11/18 12:11:06;;;;;;;;;;;7.10;99.90;;;;;;5026484;28;20369;-74
2022/11/18 12:13:39;;;;;;;;;;;7.10;99.90;;;;;;5024664;28;19917;-74
2022/11/18 12:16:16;;;;;;;;;;;7.10;99.90;;;;;;5024731;28;19917;-74
2022/11/18 12:18:45;;;;;;;;;;;7.10;99.90;;;;;;5044546;28;20457;-73
2022/11/18 12:21:30;;;;;;;;;;;7.10;99.90;;;;;;5023362;28;19925;-74
2022/11/18 12:24:15;;;;;;;;;;;7.10;99.90;;;;;;5024662;28;19936;-75
2022/11/18 12:26:41;;;;;;;;;;;7.10;99.90;;;;;;5022099;28;19917;-74
2022/11/18 12:29:18;;;;;;;;;;;7.10;99.90;;;;;;5022373;28;20314;-75
2022/11/18 12:31:47;;;;;;;;;;;7.10;99.90;;;;;;5030364;28;19924;-74
2022/11/18 12:34:25;;;;;;;;;;;7.10;99.90;;;;;;5033823;28;20424;-74
2022/11/18 12:36:52;;;;;;;;;;;7.10;99.90;;;;;;5028037;28;20394;-74
2022/11/18 12:39:23;;;;;;;;;;;7.00;99.90;;;;;;5023523;28;20386;-74
2022/11/18 12:44:38;;;;;;;;;;;7.00;99.90;;;;;;5022454;28;20375;-74
2022/11/18 12:47:05;;;;;;;;;;;7.00;99.90;;;;;;5029183;28;20306;-75
2022/11/18 12:49:30;;;;;;;;;;;6.90;99.90;;;;;;5029945;28;20022;-74
2022/11/18 12:51:57;;;;;;;;;;;6.90;99.90;;;;;;5033700;28;20414;-74
2022/11/18 12:54:30;;;;;;;;;;;6.90;99.90;;;;;;5005029;28;21071;-74
2022/11/18 12:57:01;;;;;;;;;;;6.90;99.90;;;;;;5021271;28;19986;-74
2022/11/18 12:59:28;;;;;;;;;;;6.90;99.90;;;;;;5028776;28;19928;-74
2022/11/18 13:02:00;;;;;;;;;;;6.90;99.90;;;;;;5026981;28;20363;-74
2022/11/18 13:04:26;;;;;;;;;;;6.80;99.90;;;;;;5019344;28;19924;-74
2022/11/18 13:06:53;;;;;;;;;;;6.80;99.90;;;;;;5020932;28;20379;-74
2022/11/18 13:09:20;;;;;;;;;;;6.80;99.90;;;;;;5011913;28;19917;-74
2022/11/18 13:11:49;;;;;;;;;;;6.70;99.90;;;;;;5025126;28;19979;-73
2022/11/18 13:20:19;;;;;;;;;;;6.60;99.90;;;;;;5036553;28;19922;-74
2022/11/18 13:25:33;;;;;;;;;;;6.50;99.90;;;;;;5031246;28;20009;-74
2022/11/18 13:27:58;;;;;;;;;;;6.50;99.90;;;;;;5030033;28;20522;-74
2022/11/18 13:30:24;;;;;;;;;;;6.40;99.90;;;;;;5035913;28;19916;-74
2022/11/18 13:32:51;;;;;;;;;;;6.40;99.90;;;;;;5026181;28;19917;-74
2022/11/18 13:35:18;;;;;;;;;;;6.50;99.90;;;;;;5027002;28;19996;-74
2022/11/18 13:37:49;;;;;;;;;;;6.40;99.90;;;;;;5022606;28;19936;-74
2022/11/18 13:40:37;;;;;;;;;;;6.40;99.90;;;;;;5033360;28;20406;-74
2022/11/18 13:43:03;;;;;;;;;;;6.40;99.90;;;;;;5016902;28;19935;-74
2022/11/18 13:45:29;;;;;;;;;;;6.50;99.90;;;;;;5011645;28;19917;-74
2022/11/18 13:47:58;;;;;;;;;;;6.40;99.90;;;;;;5010897;28;19924;-74
2022/11/18 13:50:38;;;;;;;;;;;6.40;99.90;;;;;;5009416;28;19917;-73
2022/11/18 13:53:13;;;;;;;;;;;6.40;99.90;;;;;;5023960;28;19917;-74
2022/11/18 13:56:00;;;;;;;;;;;6.40;99.90;;;;;;5031874;28;19917;-73
2022/11/18 13:58:30;;;;;;;;;;;6.40;99.90;;;;;;5016223;28;19925;-73
2022/11/18 14:00:58;;;;;;;;;;;6.40;99.90;;;;;;5023854;28;19931;-74
2022/11/18 14:03:30;;;;;;;;;;;6.40;99.90;;;;;;5028538;28;20393;-73
2022/11/18 14:05:56;;;;;;;;;;;6.40;99.90;;;;;;5032091;28;19964;-73
2022/11/18 14:08:25;;;;;;;;;;;6.30;99.90;;;;;;5024004;28;19921;-70
2022/11/18 14:10:50;;;;;;;;;;;6.30;99.90;;;;;;5030318;28;20454;-70
2022/11/18 14:13:33;;;;;;;;;;;6.30;99.90;;;;;;5015577;28;20024;-71
2022/11/18 14:16:00;;;;;;;;;;;6.30;99.90;;;;;;5021155;28;20413;-71
2022/11/18 14:18:36;;;;;;;;;;;6.30;99.90;;;;;;5021798;28;19917;-71
2022/11/18 14:21:03;;;;;;;;;;;6.20;99.90;;;;;;5028398;28;20059;-71
2022/11/18 14:23:41;;;;;;;;;;;6.20;99.90;;;;;;5023948;28;20355;-71
2022/11/18 14:26:06;;;;;;;;;;;6.20;99.90;;;;;;5028044;28;20018;-73
2022/11/18 14:28:36;;;;;;;;;;;6.20;99.90;;;;;;5022364;28;20489;-71
2022/11/18 14:31:31;;;;;;;;;;;6.10;99.90;;;;;;5023010;28;19921;-74
2022/11/18 14:34:16;;;;;;;;;;;6.20;99.90;;;;;;4991074;28;19924;-69
2022/11/18 14:36:42;;;;;;;;;;;6.10;99.90;;;;;;5027328;28;20394;-72
2022/11/18 14:39:12;;;;;;;;;;;6.00;99.90;;;;;;5028424;28;19970;-71
2022/11/18 14:41:47;;;;;;;;;;;6.00;99.90;;;;;;5021972;28;20299;-75
2022/11/18 14:44:13;;;;;;;;;;;5.90;99.90;;;;;;5027400;28;19917;-71
2022/11/18 14:46:40;;;;;;;;;;;5.90;99.90;;;;;;5023851;28;19917;-69
2022/11/18 14:49:08;;;;;;;;;;;5.90;99.90;;;;;;5032361;28;19971;-70
2022/11/18 14:51:36;;;;;;;;;;;5.90;99.90;;;;;;5042597;28;19925;-70
2022/11/18 14:54:02;;;;;;;;;;;5.80;99.90;;;;;;5040046;28;20394;-70
2022/11/18 14:56:29;;;;;;;;;;;5.80;99.90;;;;;;5039403;28;19955;-71
2022/11/18 14:58:54;;;;;;;;;;;5.70;99.90;;;;;;5037963;28;20007;-71
2022/11/18 15:01:20;;;;;;;;;;;5.70;99.90;;;;;;5042075;28;20383;-70
2022/11/18 15:03:46;;;;;;;;;;;5.70;99.90;;;;;;5032392;28;19924;-70
2022/11/18 15:06:15;;;;;;;;;;;5.60;99.90;;;;;;5034867;28;19939;-70
2022/11/18 15:08:42;;;;;;;;;;;5.60;99.90;;;;;;5033464;28;19917;-70